createdAt,value
2023-03-08T00:01:02.459Z,77.69
2023-03-08T00:03:29.261Z,77.57
2023-03-08T00:05:55.834Z,77.90
2023-03-08T00:08:22.431Z,77.68
2023-03-08T00:10:49.381Z,77.82
2023-03-08T00:13:15.984Z,78.00
2023-03-08T00:15:42.572Z,78.12
2023-03-08T00:18:09.467Z,78.34
2023-03-08T00:20:36.167Z,77.89
2023-03-08T00:23:02.875Z,78.25
2023-03-08T00:25:30.034Z,78.34
2023-03-08T00:27:56.634Z,77.95
2023-03-08T00:30:23.274Z,78.11
2023-03-08T00:32:49.968Z,78.33
2023-03-08T00:35:16.676Z,78.18
2023-03-08T00:37:43.269Z,78.34
2023-03-08T00:40:10.473Z,78.43
2023-03-08T00:42:37.069Z,78.04
2023-03-08T00:45:03.850Z,78.30
2023-03-08T00:47:30.732Z,78.54
2023-03-08T00:49:58.001Z,78.12
2023-03-08T00:52:24.597Z,78.55
2023-03-08T00:54:54.026Z,78.30
2023-03-08T00:57:20.661Z,78.58
2023-03-08T00:59:47.219Z,78.75
2023-03-08T01:02:14.100Z,78.35
2023-03-08T01:04:40.697Z,78.39
2023-03-08T01:07:07.326Z,78.37
2023-03-08T01:09:33.984Z,78.35
2023-03-08T01:12:00.592Z,78.78
2023-03-08T01:14:27.211Z,78.44
2023-03-08T01:16:53.876Z,79.00
2023-03-08T01:19:20.715Z,78.47
2023-03-08T01:21:47.265Z,78.50
2023-03-08T01:24:14.030Z,78.82
2023-03-08T01:26:40.615Z,79.07
2023-03-08T01:29:07.158Z,78.56
2023-03-08T01:31:33.959Z,78.87
2023-03-08T01:34:00.745Z,78.87
2023-03-08T01:36:28.718Z,78.69
2023-03-08T01:38:55.575Z,78.76
2023-03-08T01:41:28.575Z,78.73
2023-03-08T01:43:55.995Z,78.83
2023-03-08T01:46:29.871Z,78.87
2023-03-08T01:49:17.912Z,78.97
2023-03-08T01:51:49.089Z,79.17
2023-03-08T01:54:28.451Z,78.94
2023-03-08T01:57:01.043Z,79.00
2023-03-08T01:59:29.951Z,79.45
2023-03-08T02:01:56.596Z,79.09
2023-03-08T02:04:23.208Z,79.10
2023-03-08T02:06:50.022Z,78.89
2023-03-08T02:09:16.700Z,79.24
2023-03-08T02:11:43.722Z,79.42
2023-03-08T02:14:10.643Z,79.32
2023-03-08T02:16:38.302Z,79.03
2023-03-08T02:19:11.264Z,79.48
2023-03-08T02:21:37.978Z,79.00
2023-03-08T02:24:21.140Z,79.07
2023-03-08T02:26:48.555Z,79.25
2023-03-08T02:29:15.349Z,79.57
2023-03-08T02:31:42.054Z,79.18
2023-03-08T02:34:08.857Z,79.41
2023-03-08T02:36:35.734Z,79.09
2023-03-08T02:39:02.372Z,79.59
2023-03-08T02:41:29.074Z,79.13
2023-03-08T02:43:55.675Z,79.37
2023-03-08T02:46:22.570Z,79.76
2023-03-08T02:48:50.787Z,79.72
2023-03-08T02:51:17.365Z,79.71
2023-03-08T02:53:43.995Z,79.40
2023-03-08T02:56:10.636Z,79.46
2023-03-08T02:58:37.220Z,79.83
2023-03-08T03:01:03.983Z,79.60
2023-03-08T03:03:31.443Z,79.30
2023-03-08T03:05:58.192Z,79.53
2023-03-08T03:08:24.815Z,79.56
2023-03-08T03:10:51.546Z,79.31
2023-03-08T03:13:18.176Z,79.37
2023-03-08T03:15:44.867Z,79.28
2023-03-08T03:18:11.492Z,79.30
2023-03-08T03:20:38.083Z,79.55
2023-03-08T03:23:04.744Z,79.74
2023-03-08T03:25:31.342Z,79.26
2023-03-08T03:27:57.943Z,79.71
2023-03-08T03:30:24.601Z,79.49
2023-03-08T03:32:51.325Z,79.44
2023-03-08T03:35:18.040Z,79.82
2023-03-08T03:37:44.732Z,79.49
2023-03-08T03:40:12.396Z,79.71
2023-03-08T03:42:38.951Z,79.90
2023-03-08T03:45:06.110Z,79.68
2023-03-08T03:47:32.661Z,79.76
2023-03-08T03:49:59.288Z,79.65
2023-03-08T03:52:25.924Z,79.70
2023-03-08T03:54:52.569Z,79.33
2023-03-08T03:57:20.449Z,79.24
2023-03-08T03:59:47.142Z,79.27
2023-03-08T04:02:13.731Z,79.45
2023-03-08T04:04:40.348Z,79.76
2023-03-08T04:07:07.032Z,79.32
2023-03-08T04:09:33.608Z,79.60
2023-03-08T04:12:02.642Z,79.69
2023-03-08T04:14:29.235Z,79.55
2023-03-08T04:16:55.899Z,79.87
2023-03-08T04:19:22.648Z,79.55
2023-03-08T04:21:49.401Z,79.28
2023-03-08T04:24:16.018Z,79.64
2023-03-08T04:26:42.607Z,79.45
2023-03-08T04:29:09.234Z,79.66
2023-03-08T04:31:36.932Z,79.59
2023-03-08T04:34:04.219Z,79.53
2023-03-08T04:36:30.965Z,79.73
2023-03-08T04:38:58.069Z,79.15
2023-03-08T04:41:25.199Z,79.33
2023-03-08T04:43:54.591Z,79.59
2023-03-08T04:46:26.691Z,79.51
2023-03-08T04:48:55.646Z,79.25
2023-03-08T04:51:24.681Z,79.49
2023-03-08T04:53:51.425Z,79.42
2023-03-08T04:56:18.740Z,79.41
2023-03-08T04:58:45.484Z,79.33
2023-03-08T06:03:42.483Z,79.84
2023-03-08T06:06:09.204Z,79.43
2023-03-08T06:08:36.066Z,79.77
2023-03-08T06:11:03.000Z,79.21
2023-03-08T06:13:30.060Z,79.54
2023-03-08T06:15:58.190Z,79.51
2023-03-08T06:18:25.385Z,79.13
2023-03-08T06:21:16.832Z,79.28
2023-03-08T06:23:45.528Z,79.61
2023-03-08T06:26:12.771Z,79.35
2023-03-08T06:28:42.751Z,79.31
2023-03-08T06:31:13.366Z,79.68
2023-03-08T06:33:40.386Z,79.30
2023-03-08T06:36:13.001Z,79.51
2023-03-08T06:38:41.489Z,79.23
2023-03-08T06:41:10.293Z,79.45
2023-03-08T06:43:37.103Z,79.13
2023-03-08T06:46:09.082Z,79.19
2023-03-08T06:48:36.908Z,79.20
2023-03-08T06:51:05.009Z,79.34
2023-03-08T06:53:32.124Z,79.48
2023-03-08T06:55:59.116Z,79.48
2023-03-08T06:58:25.694Z,79.20
2023-03-08T07:00:54.365Z,79.67
2023-03-08T07:03:21.054Z,79.13
2023-03-08T07:05:47.656Z,79.64
2023-03-08T07:08:14.406Z,79.70
2023-03-08T07:10:41.092Z,79.44
2023-03-08T07:13:07.702Z,79.20
2023-03-08T07:15:34.435Z,79.09
2023-03-08T07:18:01.122Z,79.43
2023-03-08T07:20:27.968Z,79.13
2023-03-08T07:22:54.855Z,79.08
2023-03-08T07:25:21.903Z,79.36
2023-03-08T07:27:48.730Z,79.07
2023-03-08T07:30:16.278Z,79.26
2023-03-08T07:32:43.192Z,79.27
2023-03-08T07:35:11.636Z,78.93
2023-03-08T07:37:38.563Z,78.89
2023-03-08T07:40:06.940Z,78.75
2023-03-08T07:42:33.886Z,79.10
2023-03-08T07:45:03.717Z,78.67
2023-03-08T07:47:31.649Z,79.15
2023-03-08T07:49:58.555Z,78.74
2023-03-08T07:52:29.462Z,79.16
2023-03-08T07:54:56.770Z,79.26
2023-03-08T07:57:23.885Z,79.01
2023-03-08T07:59:53.417Z,78.71
2023-03-08T08:02:20.748Z,78.60
2023-03-08T08:04:47.451Z,78.49
2023-03-08T08:07:16.494Z,78.46
2023-03-08T08:09:43.262Z,78.97
2023-03-08T08:12:10.075Z,78.49
2023-03-08T08:14:36.857Z,78.38
2023-03-08T08:17:03.826Z,78.72
2023-03-08T08:19:32.025Z,78.57
2023-03-08T08:21:59.161Z,78.67
2023-03-08T08:24:26.293Z,78.57
2023-03-08T08:26:53.302Z,78.16
2023-03-08T08:29:20.173Z,78.63
2023-03-08T08:31:46.998Z,78.13
2023-03-08T08:34:13.949Z,78.11
2023-03-08T08:36:40.730Z,78.18
2023-03-08T08:39:07.396Z,78.22
2023-03-08T08:41:34.072Z,77.97
2023-03-08T08:44:00.971Z,77.75
2023-03-08T08:46:28.630Z,77.42
2023-03-08T08:48:57.636Z,77.45
2023-03-08T08:51:24.611Z,77.65
2023-03-08T08:53:51.354Z,77.68
2023-03-08T08:56:27.265Z,76.69
2023-03-08T08:59:00.608Z,76.74
2023-03-08T09:01:31.402Z,77.21
2023-03-08T09:03:59.408Z,77.00
2023-03-08T09:06:27.933Z,76.84
2023-03-08T09:08:57.484Z,77.11
2023-03-08T09:11:25.462Z,77.12
2023-03-08T09:13:53.318Z,76.46
2023-03-08T09:16:28.632Z,76.68
2023-03-08T09:18:56.974Z,76.62
2023-03-08T09:21:24.881Z,76.39
2023-03-08T09:23:52.136Z,76.31
2023-03-08T09:26:19.190Z,76.34
2023-03-08T09:28:46.117Z,75.93
2023-03-08T09:31:18.753Z,76.20
2023-03-08T09:33:48.698Z,76.29
2023-03-08T09:36:15.755Z,75.92
2023-03-08T09:38:42.913Z,76.14
2023-03-08T09:41:27.919Z,75.38
2023-03-08T09:43:57.486Z,75.69
2023-03-08T09:46:31.258Z,75.59
2023-03-08T09:49:01.198Z,75.78
2023-03-08T09:51:37.764Z,75.06
2023-03-08T09:54:11.299Z,74.91
2023-03-08T09:56:46.107Z,75.22
2023-03-08T09:59:19.720Z,74.78
2023-03-08T10:02:17.331Z,74.86
2023-03-08T10:05:12.188Z,74.71
2023-03-08T10:08:01.495Z,74.65
2023-03-08T10:10:28.039Z,74.61
2023-03-08T10:13:19.078Z,74.59
2023-03-08T10:15:50.592Z,74.57
2023-03-08T10:18:21.899Z,74.51
2023-03-08T10:20:49.059Z,74.08
2023-03-08T10:23:19.442Z,73.95
2023-03-08T10:25:47.987Z,73.94
2023-03-08T10:28:16.128Z,73.74
2023-03-08T10:31:04.553Z,73.16
2023-03-08T10:33:36.261Z,72.34
2023-03-08T10:36:06.501Z,72.09
2023-03-08T10:38:35.405Z,71.88
2023-03-08T10:41:16.574Z,71.48
2023-03-08T10:43:49.412Z,71.79
2023-03-08T10:46:22.853Z,71.29
2023-03-08T10:48:49.848Z,71.17
2023-03-08T10:51:27.760Z,70.66
2023-03-08T10:54:03.464Z,70.23
2023-03-08T10:56:38.574Z,70.25
2023-03-08T10:59:15.828Z,70.63
2023-03-08T11:01:54.708Z,69.41
2023-03-08T11:04:23.718Z,69.46
2023-03-08T11:06:50.728Z,69.54
2023-03-08T11:09:22.354Z,69.29
2023-03-08T11:11:49.052Z,69.25
2023-03-08T11:14:16.265Z,68.43
2023-03-08T11:17:05.041Z,67.75
2023-03-08T11:19:35.190Z,68.40
2023-03-08T11:22:07.939Z,67.79
2023-03-08T11:24:53.041Z,68.03
2023-03-08T11:27:44.242Z,66.37
2023-03-08T11:30:28.030Z,66.49
2023-03-08T11:33:34.304Z,66.86
2023-03-08T11:36:12.665Z,65.63
2023-03-08T11:38:39.749Z,65.90
2023-03-08T11:41:14.738Z,65.80
2023-03-08T11:44:00.172Z,64.44
2023-03-08T11:46:41.966Z,64.65
2023-03-08T11:49:33.980Z,64.64
2023-03-08T11:52:00.586Z,64.76
2023-03-08T11:54:52.623Z,65.35
2023-03-08T11:57:20.285Z,64.41
2023-03-08T11:59:50.074Z,63.40
2023-03-08T12:02:30.545Z,63.11
2023-03-08T12:05:12.151Z,62.35
2023-03-08T12:07:45.274Z,63.10
2023-03-08T12:10:29.668Z,61.71
2023-03-08T12:13:23.345Z,62.22
2023-03-08T12:16:01.788Z,61.78
2023-03-08T12:18:34.586Z,61.38
2023-03-08T12:21:34.360Z,60.48
2023-03-08T12:24:26.813Z,60.95
2023-03-08T12:27:02.194Z,61.18
2023-03-08T12:29:37.623Z,61.16
2023-03-08T12:32:05.888Z,60.59
2023-03-08T12:34:35.788Z,60.43
2023-03-08T12:37:02.693Z,60.55
2023-03-08T12:39:36.890Z,59.62
2023-03-08T12:42:09.990Z,59.19
2023-03-08T12:44:37.806Z,59.58
2023-03-08T12:47:13.761Z,59.37
2023-03-08T12:49:45.023Z,59.79
2023-03-08T12:52:17.688Z,59.24
2023-03-08T12:54:56.378Z,58.84
2023-03-08T12:57:28.574Z,57.24
2023-03-08T12:59:58.761Z,56.64
2023-03-08T13:02:28.507Z,57.43
2023-03-08T13:05:28.536Z,57.05
2023-03-08T13:08:07.316Z,57.06
2023-03-08T13:10:38.475Z,57.00
2023-03-08T13:13:20.464Z,57.31
2023-03-08T13:16:20.556Z,57.24
2023-03-08T13:18:49.877Z,57.48
2023-03-08T13:21:35.406Z,57.46
2023-03-08T13:24:22.645Z,57.63
2023-03-08T13:27:09.085Z,57.04
2023-03-08T13:29:36.403Z,57.46
2023-03-08T13:32:18.281Z,57.68
2023-03-08T13:34:47.102Z,57.53
2023-03-08T13:37:25.152Z,56.43
2023-03-08T13:39:57.365Z,56.48
2023-03-08T13:42:25.879Z,56.81
2023-03-08T13:44:54.021Z,56.97
2023-03-08T13:47:30.454Z,56.69
2023-03-08T13:49:58.749Z,57.24
2023-03-08T13:52:31.378Z,57.17
2023-03-08T13:55:05.438Z,57.06
2023-03-08T13:57:36.554Z,56.60
2023-03-08T14:00:28.456Z,56.60
2023-03-08T14:02:57.644Z,57.02
2023-03-08T14:05:28.576Z,57.32
2023-03-08T14:08:04.163Z,56.14
2023-03-08T14:10:39.083Z,56.54
2023-03-08T14:13:14.746Z,56.98
2023-03-08T14:15:58.845Z,56.82
2023-03-08T14:18:34.671Z,56.72
2023-03-08T14:21:05.370Z,56.58
2023-03-08T14:23:38.215Z,55.86
2023-03-08T14:26:07.742Z,56.11
2023-03-08T14:28:41.391Z,55.50
2023-03-08T14:31:28.695Z,55.80
2023-03-08T14:34:01.773Z,55.71
2023-03-08T14:36:30.534Z,56.36
2023-03-08T14:39:01.657Z,55.99
2023-03-08T14:41:36.585Z,55.81
2023-03-08T14:44:05.046Z,56.20
2023-03-08T14:46:32.042Z,56.35
2023-03-08T14:49:22.359Z,55.59
2023-03-08T14:51:49.794Z,55.89
2023-03-08T14:54:38.594Z,56.01
2023-03-08T14:57:17.367Z,55.73
2023-03-08T14:59:44.505Z,54.94
2023-03-08T15:02:13.334Z,55.03
2023-03-08T15:04:40.946Z,54.49
2023-03-08T15:07:14.864Z,54.83
2023-03-08T15:09:41.577Z,55.33
2023-03-08T15:12:09.474Z,55.04
2023-03-08T15:14:36.609Z,55.26
2023-03-08T15:17:03.686Z,54.98
2023-03-08T15:19:30.294Z,55.46
2023-03-08T15:21:57.181Z,55.36
2023-03-08T15:24:23.920Z,55.58
2023-03-08T15:26:52.727Z,55.68
2023-03-08T15:29:28.936Z,55.30
2023-03-08T15:31:56.149Z,56.31
2023-03-08T15:34:23.422Z,56.38
2023-03-08T15:36:51.469Z,56.65
2023-03-08T15:39:19.453Z,56.84
2023-03-08T15:41:47.118Z,56.73
2023-03-08T15:44:14.045Z,57.15
2023-03-08T15:46:40.801Z,57.01
2023-03-08T15:49:07.528Z,56.38
2023-03-08T15:51:36.419Z,57.23
2023-03-08T15:54:05.611Z,57.03
2023-03-08T15:56:32.495Z,56.69
2023-03-08T15:58:59.380Z,57.12
2023-03-08T16:01:27.302Z,57.10
2023-03-08T16:03:55.730Z,57.48
2023-03-08T16:06:23.334Z,56.93
2023-03-08T16:08:49.900Z,57.60
2023-03-08T16:11:20.517Z,57.07
2023-03-08T16:13:49.280Z,57.65
2023-03-08T16:16:16.218Z,57.75
2023-03-08T16:18:44.718Z,57.62
2023-03-08T16:21:11.859Z,57.08
2023-03-08T16:23:41.695Z,56.96
2023-03-08T16:26:16.945Z,56.89
2023-03-08T16:28:47.042Z,57.10
2023-03-08T16:31:15.199Z,57.10
2023-03-08T16:33:41.987Z,56.29
2023-03-08T16:36:08.847Z,56.57
2023-03-08T16:38:35.952Z,56.53
2023-03-08T16:41:12.547Z,56.12
2023-03-08T16:43:47.406Z,56.00
2023-03-08T16:46:17.171Z,56.12
2023-03-08T16:48:44.054Z,56.49
2023-03-08T16:51:14.415Z,56.29
2023-03-08T16:53:41.170Z,56.54
2023-03-08T16:56:07.879Z,56.60
2023-03-08T16:58:34.648Z,56.39
2023-03-08T17:01:01.548Z,56.49
2023-03-08T17:03:28.454Z,56.40
2023-03-08T17:05:55.072Z,56.88
2023-03-08T17:08:21.971Z,57.12
2023-03-08T17:10:48.724Z,56.89
2023-03-08T17:13:15.316Z,57.07
2023-03-08T17:15:44.041Z,57.05
2023-03-08T17:18:11.122Z,57.70
2023-03-08T17:20:41.855Z,57.79
2023-03-08T17:23:11.138Z,57.39
2023-03-08T17:25:41.134Z,57.57
2023-03-08T17:28:08.820Z,58.12
2023-03-08T17:30:36.628Z,58.00
2023-03-08T17:33:03.347Z,58.37
2023-03-08T17:35:30.432Z,58.83
2023-03-08T17:37:57.437Z,58.69
2023-03-08T17:40:24.455Z,58.64
2023-03-08T17:42:51.233Z,59.01
2023-03-08T17:45:18.779Z,59.13
2023-03-08T17:47:45.712Z,59.29
2023-03-08T17:50:15.351Z,59.26
2023-03-08T17:52:42.472Z,59.44
2023-03-08T17:55:12.038Z,59.64
2023-03-08T17:57:38.815Z,59.56
2023-03-08T18:00:06.491Z,59.80
2023-03-08T18:02:33.487Z,59.64
2023-03-08T18:05:00.189Z,60.52
2023-03-08T18:07:29.200Z,60.13
2023-03-08T18:09:56.102Z,60.00
2023-03-08T18:12:23.102Z,60.19
2023-03-08T18:14:52.698Z,60.25
2023-03-08T18:17:21.677Z,60.45
2023-03-08T18:19:48.683Z,60.56
2023-03-08T18:22:16.317Z,60.31
2023-03-08T18:24:43.060Z,60.76
2023-03-08T18:27:09.770Z,60.78
2023-03-08T18:29:36.981Z,60.80
2023-03-08T18:32:04.928Z,60.52
2023-03-08T18:34:31.586Z,60.72
2023-03-08T18:36:58.935Z,60.61
2023-03-08T18:39:25.964Z,60.74
2023-03-08T18:41:56.653Z,60.94
2023-03-08T18:44:24.238Z,61.17
2023-03-08T18:46:51.017Z,60.93
2023-03-08T18:49:18.221Z,60.87
2023-03-08T18:51:45.227Z,60.87
2023-03-08T18:54:17.446Z,60.95
2023-03-08T18:56:44.615Z,61.00
2023-03-08T18:59:13.577Z,60.92
2023-03-08T19:01:40.856Z,60.85
2023-03-08T19:04:08.105Z,60.90
2023-03-08T19:06:36.375Z,61.00
2023-03-08T19:09:15.101Z,61.07
2023-03-08T19:11:42.321Z,61.43
2023-03-08T19:14:11.453Z,61.15
2023-03-08T19:16:38.135Z,61.58
2023-03-08T19:19:13.364Z,61.65
2023-03-08T19:21:45.060Z,61.19
2023-03-08T19:24:13.359Z,61.45
2023-03-08T19:26:43.072Z,61.40
2023-03-08T19:29:22.940Z,61.40
2023-03-08T19:31:53.917Z,61.78
2023-03-08T19:34:26.586Z,61.97
2023-03-08T19:36:53.498Z,61.60
2023-03-08T19:39:23.540Z,61.82
2023-03-08T19:41:51.832Z,62.00
2023-03-08T19:44:19.126Z,62.16
2023-03-08T19:46:46.742Z,62.23
2023-03-08T19:49:16.433Z,62.23
2023-03-08T19:51:43.391Z,62.07
2023-03-08T19:54:10.324Z,62.13
2023-03-08T19:56:36.949Z,62.43
2023-03-08T19:59:04.139Z,61.81
2023-03-08T20:01:31.248Z,62.35
2023-03-08T20:03:58.094Z,62.09
2023-03-08T20:06:34.435Z,62.67
2023-03-08T20:09:02.639Z,62.66
2023-03-08T20:11:29.627Z,62.73
2023-03-08T20:13:56.558Z,62.82
2023-03-08T20:16:24.482Z,62.85
2023-03-08T20:18:51.917Z,63.34
2023-03-08T20:21:20.042Z,63.48
2023-03-08T20:23:49.573Z,63.50
2023-03-08T20:26:16.165Z,63.44
2023-03-08T20:28:43.084Z,63.68
2023-03-08T20:31:13.086Z,63.53
2023-03-08T20:33:40.080Z,63.57
2023-03-08T20:36:07.439Z,63.85
2023-03-08T20:38:34.087Z,63.80
2023-03-08T20:41:21.759Z,64.00
2023-03-08T20:43:50.682Z,64.03
2023-03-08T20:46:19.559Z,64.23
2023-03-08T20:48:46.770Z,63.73
2023-03-08T20:51:16.117Z,64.07
2023-03-08T20:53:43.946Z,64.24
2023-03-08T20:56:14.928Z,64.46
2023-03-08T20:58:42.084Z,64.51
2023-03-08T21:01:12.136Z,64.58
2023-03-08T21:03:39.339Z,64.22
2023-03-08T21:06:14.036Z,64.48
2023-03-08T21:08:41.301Z,64.59
2023-03-08T21:11:08.003Z,64.44
2023-03-08T21:13:34.667Z,64.74
2023-03-08T21:16:06.424Z,64.55
2023-03-08T21:18:33.096Z,64.60
2023-03-08T21:20:59.855Z,64.47
2023-03-08T21:23:26.829Z,64.34
2023-03-08T21:25:54.320Z,64.20
2023-03-08T21:28:22.043Z,64.81
2023-03-08T21:30:49.935Z,64.49
2023-03-08T21:33:17.073Z,64.79
2023-03-08T21:35:43.833Z,64.77
2023-03-08T21:38:10.682Z,64.58
2023-03-08T21:40:39.304Z,64.34
2023-03-08T21:43:06.091Z,64.46
2023-03-08T21:45:33.151Z,64.83
2023-03-08T21:47:59.989Z,64.49
2023-03-08T21:50:27.364Z,64.95
2023-03-08T21:52:54.679Z,64.80
2023-03-08T21:55:21.640Z,65.08
2023-03-08T21:57:48.372Z,65.42
2023-03-08T22:00:17.546Z,65.02
2023-03-08T22:02:46.026Z,65.63
2023-03-08T22:05:14.127Z,65.61
2023-03-08T22:07:41.626Z,65.57
2023-03-08T22:10:10.813Z,65.75
2023-03-08T22:12:37.724Z,65.55
2023-03-08T22:15:05.603Z,65.63
2023-03-08T22:17:32.460Z,65.76
2023-03-08T22:19:59.129Z,66.51
2023-03-08T22:22:26.150Z,66.23
2023-03-08T22:24:52.789Z,66.59
2023-03-08T22:27:19.434Z,66.83
2023-03-08T22:29:47.412Z,66.67
2023-03-08T22:32:14.199Z,66.42
2023-03-08T22:34:40.818Z,66.96
2023-03-08T22:37:07.566Z,66.68
2023-03-08T22:39:34.252Z,66.53
2023-03-08T22:42:01.156Z,67.18
2023-03-08T22:44:27.927Z,66.85
2023-03-08T22:46:54.625Z,67.13
2023-03-08T22:49:21.197Z,66.83
2023-03-08T22:51:48.043Z,67.08
2023-03-08T22:54:16.591Z,67.29
2023-03-08T22:56:43.384Z,67.44
2023-03-08T22:59:10.674Z,67.12
2023-03-08T23:01:37.497Z,67.24
2023-03-08T23:04:06.260Z,67.35
2023-03-08T23:06:33.467Z,67.73
2023-03-08T23:09:03.564Z,67.95
2023-03-08T23:11:30.412Z,67.99
2023-03-08T23:13:57.134Z,67.67
2023-03-08T23:16:24.051Z,67.94
2023-03-08T23:18:52.379Z,67.79
2023-03-08T23:21:20.818Z,67.81
2023-03-08T23:23:48.031Z,67.77
2023-03-08T23:26:21.396Z,67.82
2023-03-08T23:28:48.158Z,67.86
2023-03-08T23:31:17.290Z,68.13
2023-03-08T23:33:44.728Z,68.36
2023-03-08T23:36:13.148Z,68.07
2023-03-08T23:38:40.740Z,68.42
2023-03-08T23:41:09.481Z,68.12
2023-03-08T23:43:36.924Z,68.12
2023-03-08T23:46:08.397Z,68.11
2023-03-08T23:48:35.733Z,68.55
2023-03-08T23:51:07.077Z,68.46
2023-03-08T23:53:34.327Z,68.54
2023-03-08T23:56:01.501Z,68.59
2023-03-08T23:58:28.632Z,68.31
